This is the latest recevied weather packets stored in our database for station/object PA3CPS. If no packets are shown the sender has not sent any weather packets the latest 1 day(s).
| Time | Temp. | Humidity | Pressure | Rain* | Wind** | Luminosity | Snow |
|---|---|---|---|---|---|---|---|
| 1778082008 | 11.67° C | 71% | 1009.5 hPa | 0 mm | - | 135 W/m² | - |
| 1778078687 | 11.67° C | 70% | 1009.1 hPa | 0 mm | - | 125 W/m² | - |
| 1778076573 | 11.67° C | 69% | 1009 hPa | 0 mm | - | 118 W/m² | - |
| 1778076273 | 11.67° C | 69% | 1009 hPa | 0 mm | - | 135 W/m² | - |
| 1778075070 | 11.67° C | 72% | 1009 hPa | 0 mm | - | 193 W/m² | - |
| 1778072356 | 11.11° C | 75% | 1008.8 hPa | 0 mm | - | 269 W/m² | - |
| 1778071751 | 11.11° C | 75% | 1008.9 hPa | 0 mm | - | 214 W/m² | - |
| 1778071146 | 11.11° C | 74% | 1008.8 hPa | 0 mm | - | 214 W/m² | - |
| 1778069944 | 11.11° C | 72% | 1008.6 hPa | 0 mm | - | 183 W/m² | - |
| 1778069342 | 11.11° C | 71% | 1008.5 hPa | 0 mm | - | 186 W/m² | - |
| 1778068739 | 11.11° C | 70% | 1008.4 hPa | 0 mm | - | 179 W/m² | - |
| 1778068139 | 11.67° C | 70% | 1008.3 hPa | 0 mm | - | 190 W/m² | - |
| 1778066931 | 11.67° C | 70% | 1008.5 hPa | 0 mm | - | 239 W/m² | - |
| 1778066326 | 11.67° C | 75% | 1008.5 hPa | 0 mm | - | 258 W/m² | - |
| 1778066024 | 11.67° C | 74% | 1008.5 hPa | 0 mm | - | 251 W/m² | - |
| 1778065721 | 11.11° C | 74% | 1008.5 hPa | 0 mm | - | 257 W/m² | - |
| 1778065115 | 11.11° C | 74% | 1008.6 hPa | 0 mm | - | 257 W/m² | - |
| 1778064512 | 11.11° C | 73% | 1008.6 hPa | 0 mm | - | 223 W/m² | - |
| 1778063612 | 11.11° C | 73% | 1008.4 hPa | 0 mm | - | 213 W/m² | - |
| 1778063311 | 11.11° C | 74% | 1008.3 hPa | 0 mm | - | 195 W/m² | - |
| 1778063012 | 11.11° C | 75% | 1008.4 hPa | 0 mm | - | 204 W/m² | - |
| 1778062112 | 11.11° C | 77% | 1008.3 hPa | 0 mm | - | 276 W/m² | - |
| 1778061812 | 11.11° C | 76% | 1008.2 hPa | 0 mm | - | 297 W/m² | - |
| 1778060912 | 11.11° C | 74% | 1008.2 hPa | 0 mm | - | 262 W/m² | - |
| 1778060611 | 11.11° C | 74% | 1008.1 hPa | 0 mm | - | 241 W/m² | - |
* Rain latest hour (hover to see other rain measurements)
** Current wind speed in m/s (hover to see current wind gust speed)